sensor_id;sensor_type;location;lat;lon;timestamp;P1;durP1;ratioP1;P2;durP2;ratioP2
74309;SDS011;62722;51.142;17.052;2022-11-21T00:00:30;55.17;;;21.50;;
74309;SDS011;62722;51.142;17.052;2022-11-21T00:03:02;64.18;;;23.02;;
74309;SDS011;62722;51.142;17.052;2022-11-21T00:05:31;58.33;;;23.38;;
74309;SDS011;62722;51.142;17.052;2022-11-21T00:07:58;67.32;;;22.92;;
74309;SDS011;62722;51.142;17.052;2022-11-21T00:10:27;61.85;;;23.02;;
74309;SDS011;62722;51.142;17.052;2022-11-21T00:12:55;58.20;;;21.90;;
74309;SDS011;62722;51.142;17.052;2022-11-21T00:15:24;66.03;;;23.63;;
74309;SDS011;62722;51.142;17.052;2022-11-21T00:17:52;67.05;;;24.33;;
74309;SDS011;62722;51.142;17.052;2022-11-21T00:20:20;55.42;;;22.80;;
74309;SDS011;62722;51.142;17.052;2022-11-21T00:22:48;55.95;;;22.83;;
74309;SDS011;62722;51.142;17.052;2022-11-21T00:25:15;62.30;;;22.60;;
74309;SDS011;62722;51.142;17.052;2022-11-21T00:27:44;61.05;;;22.98;;
74309;SDS011;62722;51.142;17.052;2022-11-21T00:30:11;62.63;;;22.17;;
74309;SDS011;62722;51.142;17.052;2022-11-21T00:32:39;59.15;;;24.27;;
74309;SDS011;62722;51.142;17.052;2022-11-21T00:35:07;56.45;;;22.38;;
74309;SDS011;62722;51.142;17.052;2022-11-21T00:37:34;58.63;;;24.05;;
74309;SDS011;62722;51.142;17.052;2022-11-21T00:40:02;59.67;;;21.77;;
74309;SDS011;62722;51.142;17.052;2022-11-21T00:42:30;60.35;;;21.58;;
74309;SDS011;62722;51.142;17.052;2022-11-21T00:44:59;61.72;;;23.05;;
74309;SDS011;62722;51.142;17.052;2022-11-21T00:47:26;58.22;;;21.95;;
74309;SDS011;62722;51.142;17.052;2022-11-21T00:49:53;52.90;;;21.13;;
74309;SDS011;62722;51.142;17.052;2022-11-21T00:52:21;50.25;;;19.45;;
74309;SDS011;62722;51.142;17.052;2022-11-21T00:54:48;53.55;;;22.10;;
74309;SDS011;62722;51.142;17.052;2022-11-21T00:57:15;53.92;;;20.35;;
74309;SDS011;62722;51.142;17.052;2022-11-21T00:59:42;52.45;;;19.55;;
74309;SDS011;62722;51.142;17.052;2022-11-21T01:02:11;53.25;;;18.80;;
74309;SDS011;62722;51.142;17.052;2022-11-21T01:04:38;56.55;;;19.33;;
74309;SDS011;62722;51.142;17.052;2022-11-21T01:07:06;51.47;;;18.60;;
74309;SDS011;62722;51.142;17.052;2022-11-21T01:09:40;53.85;;;19.25;;
74309;SDS011;62722;51.142;17.052;2022-11-21T01:12:07;56.35;;;21.33;;
74309;SDS011;62722;51.142;17.052;2022-11-21T01:14:34;64.60;;;23.98;;
74309;SDS011;62722;51.142;17.052;2022-11-21T01:17:02;57.60;;;21.73;;
74309;SDS011;62722;51.142;17.052;2022-11-21T01:19:31;57.45;;;21.73;;
74309;SDS011;62722;51.142;17.052;2022-11-21T01:21:58;56.15;;;23.13;;
74309;SDS011;62722;51.142;17.052;2022-11-21T01:24:25;52.00;;;18.80;;
74309;SDS011;62722;51.142;17.052;2022-11-21T01:26:53;47.05;;;19.08;;
74309;SDS011;62722;51.142;17.052;2022-11-21T01:29:20;45.55;;;17.38;;
74309;SDS011;62722;51.142;17.052;2022-11-21T01:31:47;54.03;;;18.60;;
74309;SDS011;62722;51.142;17.052;2022-11-21T01:34:14;52.10;;;17.63;;
74309;SDS011;62722;51.142;17.052;2022-11-21T01:36:44;46.67;;;16.25;;
74309;SDS011;62722;51.142;17.052;2022-11-21T01:39:12;43.10;;;16.58;;
74309;SDS011;62722;51.142;17.052;2022-11-21T01:41:40;43.10;;;16.90;;
74309;SDS011;62722;51.142;17.052;2022-11-21T01:44:09;51.42;;;18.92;;
74309;SDS011;62722;51.142;17.052;2022-11-21T01:46:42;50.42;;;19.30;;
74309;SDS011;62722;51.142;17.052;2022-11-21T01:49:10;46.45;;;19.10;;
74309;SDS011;62722;51.142;17.052;2022-11-21T01:51:41;47.85;;;18.38;;
74309;SDS011;62722;51.142;17.052;2022-11-21T01:54:17;47.35;;;17.52;;
74309;SDS011;62722;51.142;17.052;2022-11-21T01:56:49;48.08;;;17.35;;
74309;SDS011;62722;51.142;17.052;2022-11-21T01:59:24;52.58;;;19.85;;
74309;SDS011;62722;51.142;17.052;2022-11-21T02:01:55;49.65;;;18.75;;
74309;SDS011;62722;51.142;17.052;2022-11-21T02:04:26;50.75;;;19.13;;
74309;SDS011;62722;51.142;17.052;2022-11-21T02:06:58;56.67;;;19.88;;
74309;SDS011;62722;51.142;17.052;2022-11-21T02:09:27;54.53;;;19.70;;
74309;SDS011;62722;51.142;17.052;2022-11-21T02:11:57;52.20;;;19.33;;
74309;SDS011;62722;51.142;17.052;2022-11-21T02:14:30;48.95;;;19.17;;
74309;SDS011;62722;51.142;17.052;2022-11-21T02:16:59;49.53;;;18.08;;
74309;SDS011;62722;51.142;17.052;2022-11-21T02:19:32;55.83;;;18.58;;
74309;SDS011;62722;51.142;17.052;2022-11-21T02:22:08;51.90;;;17.70;;
74309;SDS011;62722;51.142;17.052;2022-11-21T02:24:42;41.90;;;17.42;;
74309;SDS011;62722;51.142;17.052;2022-11-21T02:27:14;45.00;;;18.35;;
74309;SDS011;62722;51.142;17.052;2022-11-21T02:29:42;44.45;;;16.85;;
74309;SDS011;62722;51.142;17.052;2022-11-21T02:32:18;54.40;;;18.73;;
74309;SDS011;62722;51.142;17.052;2022-11-21T02:34:47;44.58;;;16.88;;
74309;SDS011;62722;51.142;17.052;2022-11-21T02:37:14;53.40;;;18.42;;
74309;SDS011;62722;51.142;17.052;2022-11-21T02:39:42;52.25;;;17.42;;
74309;SDS011;62722;51.142;17.052;2022-11-21T02:42:13;49.20;;;16.60;;
74309;SDS011;62722;51.142;17.052;2022-11-21T02:44:48;50.05;;;18.67;;
74309;SDS011;62722;51.142;17.052;2022-11-21T02:47:20;53.47;;;19.42;;
74309;SDS011;62722;51.142;17.052;2022-11-21T02:49:50;49.80;;;19.67;;
74309;SDS011;62722;51.142;17.052;2022-11-21T02:52:22;47.65;;;18.73;;
74309;SDS011;62722;51.142;17.052;2022-11-21T02:54:49;39.92;;;16.38;;
74309;SDS011;62722;51.142;17.052;2022-11-21T02:57:18;42.50;;;16.38;;
74309;SDS011;62722;51.142;17.052;2022-11-21T02:59:45;47.95;;;16.20;;
74309;SDS011;62722;51.142;17.052;2022-11-21T03:02:12;43.75;;;15.38;;
74309;SDS011;62722;51.142;17.052;2022-11-21T03:04:39;47.28;;;18.10;;
74309;SDS011;62722;51.142;17.052;2022-11-21T03:07:06;44.03;;;16.85;;
74309;SDS011;62722;51.142;17.052;2022-11-21T03:09:34;47.05;;;17.33;;
74309;SDS011;62722;51.142;17.052;2022-11-21T03:12:04;46.80;;;17.27;;
74309;SDS011;62722;51.142;17.052;2022-11-21T03:14:34;50.17;;;17.02;;
74309;SDS011;62722;51.142;17.052;2022-11-21T03:17:01;42.17;;;17.23;;
74309;SDS011;62722;51.142;17.052;2022-11-21T03:19:30;52.97;;;20.40;;
74309;SDS011;62722;51.142;17.052;2022-11-21T03:21:57;53.75;;;19.20;;
74309;SDS011;62722;51.142;17.052;2022-11-21T03:24:24;47.30;;;17.40;;
74309;SDS011;62722;51.142;17.052;2022-11-21T03:26:51;56.35;;;18.95;;
74309;SDS011;62722;51.142;17.052;2022-11-21T03:29:19;50.35;;;17.45;;
74309;SDS011;62722;51.142;17.052;2022-11-21T03:31:47;48.70;;;19.92;;
74309;SDS011;62722;51.142;17.052;2022-11-21T03:34:14;43.15;;;16.20;;
74309;SDS011;62722;51.142;17.052;2022-11-21T03:36:41;40.72;;;15.40;;
74309;SDS011;62722;51.142;17.052;2022-11-21T03:39:09;39.22;;;14.57;;
74309;SDS011;62722;51.142;17.052;2022-11-21T03:41:36;39.22;;;15.02;;
74309;SDS011;62722;51.142;17.052;2022-11-21T03:44:04;37.33;;;15.40;;
74309;SDS011;62722;51.142;17.052;2022-11-21T03:46:33;50.47;;;16.75;;
74309;SDS011;62722;51.142;17.052;2022-11-21T03:49:04;43.78;;;15.25;;
74309;SDS011;62722;51.142;17.052;2022-11-21T03:51:32;43.25;;;16.08;;
74309;SDS011;62722;51.142;17.052;2022-11-21T03:53:59;52.63;;;18.58;;
74309;SDS011;62722;51.142;17.052;2022-11-21T03:56:27;60.17;;;24.08;;
74309;SDS011;62722;51.142;17.052;2022-11-21T03:58:54;73.20;;;27.08;;
74309;SDS011;62722;51.142;17.052;2022-11-21T04:01:21;65.20;;;24.25;;
74309;SDS011;62722;51.142;17.052;2022-11-21T04:03:50;49.05;;;21.10;;
74309;SDS011;62722;51.142;17.052;2022-11-21T04:06:19;46.90;;;17.00;;
74309;SDS011;62722;51.142;17.052;2022-11-21T04:08:48;50.95;;;18.75;;
74309;SDS011;62722;51.142;17.052;2022-11-21T04:11:16;44.47;;;15.60;;
74309;SDS011;62722;51.142;17.052;2022-11-21T04:13:43;50.83;;;18.70;;
74309;SDS011;62722;51.142;17.052;2022-11-21T04:16:10;44.80;;;18.63;;
74309;SDS011;62722;51.142;17.052;2022-11-21T04:18:38;45.53;;;15.82;;
74309;SDS011;62722;51.142;17.052;2022-11-21T04:21:05;42.00;;;14.73;;
74309;SDS011;62722;51.142;17.052;2022-11-21T04:23:35;46.55;;;15.60;;
74309;SDS011;62722;51.142;17.052;2022-11-21T04:26:02;43.67;;;16.20;;
74309;SDS011;62722;51.142;17.052;2022-11-21T04:28:30;44.40;;;16.35;;
74309;SDS011;62722;51.142;17.052;2022-11-21T04:31:00;37.38;;;15.23;;
74309;SDS011;62722;51.142;17.052;2022-11-21T04:33:29;37.70;;;15.35;;
74309;SDS011;62722;51.142;17.052;2022-11-21T04:35:56;40.97;;;13.88;;
74309;SDS011;62722;51.142;17.052;2022-11-21T04:38:24;40.22;;;15.35;;
74309;SDS011;62722;51.142;17.052;2022-11-21T04:40:53;45.15;;;15.77;;
74309;SDS011;62722;51.142;17.052;2022-11-21T04:43:20;44.63;;;16.10;;
74309;SDS011;62722;51.142;17.052;2022-11-21T04:45:47;44.60;;;15.35;;
74309;SDS011;62722;51.142;17.052;2022-11-21T04:48:15;42.03;;;15.77;;
74309;SDS011;62722;51.142;17.052;2022-11-21T04:50:42;39.60;;;14.07;;
74309;SDS011;62722;51.142;17.052;2022-11-21T04:53:10;35.85;;;14.32;;
74309;SDS011;62722;51.142;17.052;2022-11-21T04:55:37;37.75;;;13.80;;
74309;SDS011;62722;51.142;17.052;2022-11-21T04:58:06;40.20;;;15.02;;
74309;SDS011;62722;51.142;17.052;2022-11-21T05:00:33;39.47;;;15.07;;
74309;SDS011;62722;51.142;17.052;2022-11-21T05:03:01;39.65;;;14.98;;
74309;SDS011;62722;51.142;17.052;2022-11-21T05:05:29;39.10;;;15.40;;
74309;SDS011;62722;51.142;17.052;2022-11-21T05:07:56;37.45;;;15.02;;
74309;SDS011;62722;51.142;17.052;2022-11-21T05:10:23;42.67;;;16.15;;
74309;SDS011;62722;51.142;17.052;2022-11-21T05:12:57;44.13;;;15.20;;
74309;SDS011;62722;51.142;17.052;2022-11-21T05:15:43;41.03;;;14.05;;
74309;SDS011;62722;51.142;17.052;2022-11-21T05:18:10;44.05;;;15.10;;
74309;SDS011;62722;51.142;17.052;2022-11-21T05:20:37;42.20;;;16.75;;
74309;SDS011;62722;51.142;17.052;2022-11-21T05:23:05;45.47;;;15.98;;
74309;SDS011;62722;51.142;17.052;2022-11-21T05:25:32;39.40;;;15.88;;
74309;SDS011;62722;51.142;17.052;2022-11-21T05:27:59;46.53;;;16.30;;
74309;SDS011;62722;51.142;17.052;2022-11-21T05:30:27;44.95;;;18.70;;
74309;SDS011;62722;51.142;17.052;2022-11-21T05:32:55;36.05;;;15.18;;
74309;SDS011;62722;51.142;17.052;2022-11-21T05:35:22;37.10;;;16.02;;
74309;SDS011;62722;51.142;17.052;2022-11-21T05:37:54;42.15;;;16.90;;
74309;SDS011;62722;51.142;17.052;2022-11-21T05:40:21;37.50;;;16.10;;
74309;SDS011;62722;51.142;17.052;2022-11-21T05:42:48;43.80;;;15.57;;
74309;SDS011;62722;51.142;17.052;2022-11-21T05:45:35;36.33;;;13.48;;
74309;SDS011;62722;51.142;17.052;2022-11-21T05:48:04;38.60;;;14.07;;
74309;SDS011;62722;51.142;17.052;2022-11-21T05:50:33;40.75;;;14.35;;
74309;SDS011;62722;51.142;17.052;2022-11-21T05:53:01;40.20;;;13.40;;
74309;SDS011;62722;51.142;17.052;2022-11-21T05:55:30;34.70;;;13.88;;
74309;SDS011;62722;51.142;17.052;2022-11-21T05:57:58;41.40;;;15.10;;
74309;SDS011;62722;51.142;17.052;2022-11-21T06:00:25;37.45;;;14.55;;
74309;SDS011;62722;51.142;17.052;2022-11-21T06:02:53;33.58;;;13.38;;
74309;SDS011;62722;51.142;17.052;2022-11-21T06:05:56;38.95;;;13.88;;
74309;SDS011;62722;51.142;17.052;2022-11-21T06:08:25;37.83;;;13.93;;
74309;SDS011;62722;51.142;17.052;2022-11-21T06:10:53;43.65;;;15.95;;
74309;SDS011;62722;51.142;17.052;2022-11-21T06:13:21;39.67;;;15.43;;
74309;SDS011;62722;51.142;17.052;2022-11-21T06:15:48;32.85;;;13.65;;
74309;SDS011;62722;51.142;17.052;2022-11-21T06:18:17;37.40;;;14.90;;
74309;SDS011;62722;51.142;17.052;2022-11-21T06:20:44;39.08;;;14.02;;
74309;SDS011;62722;51.142;17.052;2022-11-21T06:23:13;43.08;;;14.40;;
74309;SDS011;62722;51.142;17.052;2022-11-21T06:25:40;35.53;;;14.63;;
74309;SDS011;62722;51.142;17.052;2022-11-21T06:28:08;40.22;;;14.38;;
74309;SDS011;62722;51.142;17.052;2022-11-21T06:30:36;38.78;;;15.13;;
74309;SDS011;62722;51.142;17.052;2022-11-21T06:33:04;40.83;;;16.00;;
74309;SDS011;62722;51.142;17.052;2022-11-21T06:35:35;37.35;;;15.02;;
74309;SDS011;62722;51.142;17.052;2022-11-21T06:38:04;37.42;;;14.65;;
74309;SDS011;62722;51.142;17.052;2022-11-21T06:40:33;36.38;;;15.15;;
74309;SDS011;62722;51.142;17.052;2022-11-21T06:43:00;34.10;;;15.00;;
74309;SDS011;62722;51.142;17.052;2022-11-21T06:45:27;51.83;;;19.83;;
74309;SDS011;62722;51.142;17.052;2022-11-21T06:47:55;44.83;;;18.20;;
74309;SDS011;62722;51.142;17.052;2022-11-21T06:50:22;44.30;;;15.93;;
74309;SDS011;62722;51.142;17.052;2022-11-21T06:52:49;41.90;;;14.55;;
74309;SDS011;62722;51.142;17.052;2022-11-21T06:55:16;40.20;;;15.05;;
74309;SDS011;62722;51.142;17.052;2022-11-21T06:57:45;40.35;;;14.50;;
74309;SDS011;62722;51.142;17.052;2022-11-21T07:00:12;41.10;;;15.90;;
74309;SDS011;62722;51.142;17.052;2022-11-21T07:02:40;40.47;;;15.73;;
74309;SDS011;62722;51.142;17.052;2022-11-21T07:05:07;41.08;;;14.30;;
74309;SDS011;62722;51.142;17.052;2022-11-21T07:07:35;37.38;;;14.55;;
74309;SDS011;62722;51.142;17.052;2022-11-21T07:10:03;36.38;;;13.50;;
74309;SDS011;62722;51.142;17.052;2022-11-21T07:12:31;38.00;;;13.27;;
74309;SDS011;62722;51.142;17.052;2022-11-21T07:15:16;39.58;;;14.23;;
74309;SDS011;62722;51.142;17.052;2022-11-21T07:17:44;42.00;;;14.93;;
74309;SDS011;62722;51.142;17.052;2022-11-21T07:20:11;35.35;;;14.13;;
74309;SDS011;62722;51.142;17.052;2022-11-21T07:22:38;35.63;;;13.02;;
74309;SDS011;62722;51.142;17.052;2022-11-21T07:25:06;37.63;;;14.25;;
74309;SDS011;62722;51.142;17.052;2022-11-21T07:27:33;41.08;;;14.82;;
74309;SDS011;62722;51.142;17.052;2022-11-21T07:30:00;36.22;;;14.13;;
74309;SDS011;62722;51.142;17.052;2022-11-21T07:32:29;41.08;;;15.55;;
74309;SDS011;62722;51.142;17.052;2022-11-21T07:34:56;35.22;;;13.70;;
74309;SDS011;62722;51.142;17.052;2022-11-21T07:37:23;30.98;;;12.43;;
74309;SDS011;62722;51.142;17.052;2022-11-21T07:39:50;39.33;;;14.68;;
74309;SDS011;62722;51.142;17.052;2022-11-21T07:42:18;36.08;;;13.65;;
74309;SDS011;62722;51.142;17.052;2022-11-21T07:44:45;32.75;;;13.32;;
74309;SDS011;62722;51.142;17.052;2022-11-21T07:47:12;36.58;;;14.18;;
74309;SDS011;62722;51.142;17.052;2022-11-21T07:49:41;36.05;;;14.65;;
74309;SDS011;62722;51.142;17.052;2022-11-21T07:52:08;37.88;;;14.43;;
74309;SDS011;62722;51.142;17.052;2022-11-21T07:54:35;34.60;;;14.05;;
74309;SDS011;62722;51.142;17.052;2022-11-21T07:57:02;39.90;;;14.77;;
74309;SDS011;62722;51.142;17.052;2022-11-21T07:59:29;42.13;;;14.00;;
74309;SDS011;62722;51.142;17.052;2022-11-21T08:01:57;37.33;;;13.90;;
74309;SDS011;62722;51.142;17.052;2022-11-21T08:04:24;35.92;;;13.80;;
74309;SDS011;62722;51.142;17.052;2022-11-21T08:06:53;35.08;;;12.88;;
74309;SDS011;62722;51.142;17.052;2022-11-21T08:09:20;41.63;;;13.63;;
74309;SDS011;62722;51.142;17.052;2022-11-21T08:11:47;32.00;;;12.15;;
74309;SDS011;62722;51.142;17.052;2022-11-21T08:14:14;31.58;;;12.48;;
74309;SDS011;62722;51.142;17.052;2022-11-21T08:16:42;29.55;;;12.48;;
74309;SDS011;62722;51.142;17.052;2022-11-21T08:19:09;31.45;;;12.13;;
74309;SDS011;62722;51.142;17.052;2022-11-21T08:21:36;27.08;;;11.25;;
74309;SDS011;62722;51.142;17.052;2022-11-21T08:24:05;26.42;;;10.52;;
74309;SDS011;62722;51.142;17.052;2022-11-21T08:26:38;25.58;;;10.50;;
74309;SDS011;62722;51.142;17.052;2022-11-21T08:29:05;30.05;;;11.15;;
74309;SDS011;62722;51.142;17.052;2022-11-21T08:31:32;28.63;;;11.35;;
74309;SDS011;62722;51.142;17.052;2022-11-21T08:33:59;27.00;;;11.07;;
74309;SDS011;62722;51.142;17.052;2022-11-21T08:36:27;27.42;;;10.80;;
74309;SDS011;62722;51.142;17.052;2022-11-21T08:38:54;31.10;;;11.23;;
74309;SDS011;62722;51.142;17.052;2022-11-21T08:41:23;29.73;;;10.88;;
74309;SDS011;62722;51.142;17.052;2022-11-21T08:44:08;26.92;;;10.43;;
74309;SDS011;62722;51.142;17.052;2022-11-21T08:46:37;25.98;;;11.10;;
74309;SDS011;62722;51.142;17.052;2022-11-21T08:49:04;37.22;;;12.35;;
74309;SDS011;62722;51.142;17.052;2022-11-21T08:51:31;34.58;;;13.20;;
74309;SDS011;62722;51.142;17.052;2022-11-21T08:53:59;28.95;;;11.38;;
74309;SDS011;62722;51.142;17.052;2022-11-21T08:56:28;25.85;;;10.68;;
74309;SDS011;62722;51.142;17.052;2022-11-21T08:58:55;29.58;;;10.90;;
74309;SDS011;62722;51.142;17.052;2022-11-21T09:01:22;33.30;;;12.50;;
74309;SDS011;62722;51.142;17.052;2022-11-21T09:03:49;30.23;;;11.35;;
74309;SDS011;62722;51.142;17.052;2022-11-21T09:06:16;41.58;;;14.13;;
74309;SDS011;62722;51.142;17.052;2022-11-21T09:08:43;36.60;;;13.85;;
74309;SDS011;62722;51.142;17.052;2022-11-21T09:11:11;35.88;;;12.50;;
74309;SDS011;62722;51.142;17.052;2022-11-21T09:13:39;30.23;;;10.55;;
74309;SDS011;62722;51.142;17.052;2022-11-21T09:16:09;33.13;;;12.23;;
74309;SDS011;62722;51.142;17.052;2022-11-21T09:18:55;27.85;;;10.27;;
74309;SDS011;62722;51.142;17.052;2022-11-21T09:21:22;20.23;;;8.80;;
74309;SDS011;62722;51.142;17.052;2022-11-21T09:23:49;27.85;;;10.30;;
74309;SDS011;62722;51.142;17.052;2022-11-21T09:26:16;24.65;;;10.45;;
74309;SDS011;62722;51.142;17.052;2022-11-21T09:28:45;27.35;;;10.48;;
74309;SDS011;62722;51.142;17.052;2022-11-21T09:31:12;25.25;;;10.10;;
74309;SDS011;62722;51.142;17.052;2022-11-21T09:33:39;27.15;;;10.10;;
74309;SDS011;62722;51.142;17.052;2022-11-21T09:36:06;24.58;;;10.40;;
74309;SDS011;62722;51.142;17.052;2022-11-21T09:38:34;24.52;;;11.05;;
74309;SDS011;62722;51.142;17.052;2022-11-21T09:41:08;23.75;;;10.32;;
74309;SDS011;62722;51.142;17.052;2022-11-21T09:44:03;28.42;;;11.05;;
74309;SDS011;62722;51.142;17.052;2022-11-21T09:46:38;26.70;;;10.43;;
74309;SDS011;62722;51.142;17.052;2022-11-21T09:49:12;26.17;;;9.50;;
74309;SDS011;62722;51.142;17.052;2022-11-21T09:51:42;24.23;;;9.68;;
74309;SDS011;62722;51.142;17.052;2022-11-21T09:54:12;28.25;;;10.25;;
74309;SDS011;62722;51.142;17.052;2022-11-21T09:56:44;25.65;;;11.20;;
74309;SDS011;62722;51.142;17.052;2022-11-21T09:59:21;27.67;;;11.18;;
74309;SDS011;62722;51.142;17.052;2022-11-21T10:01:55;25.95;;;10.25;;
74309;SDS011;62722;51.142;17.052;2022-11-21T10:04:22;22.55;;;9.63;;
74309;SDS011;62722;51.142;17.052;2022-11-21T10:06:52;21.08;;;8.85;;
74309;SDS011;62722;51.142;17.052;2022-11-21T10:09:27;22.00;;;9.32;;
74309;SDS011;62722;51.142;17.052;2022-11-21T10:12:08;26.35;;;10.73;;
74309;SDS011;62722;51.142;17.052;2022-11-21T10:15:05;23.05;;;9.13;;
74309;SDS011;62722;51.142;17.052;2022-11-21T10:17:47;22.13;;;10.05;;
74309;SDS011;62722;51.142;17.052;2022-11-21T10:20:33;21.88;;;10.38;;
74309;SDS011;62722;51.142;17.052;2022-11-21T10:23:16;20.38;;;8.85;;
74309;SDS011;62722;51.142;17.052;2022-11-21T10:25:54;21.23;;;8.02;;
74309;SDS011;62722;51.142;17.052;2022-11-21T10:28:23;17.05;;;8.43;;
74309;SDS011;62722;51.142;17.052;2022-11-21T10:31:08;22.58;;;8.60;;
74309;SDS011;62722;51.142;17.052;2022-11-21T10:33:37;21.08;;;8.10;;
74309;SDS011;62722;51.142;17.052;2022-11-21T10:36:06;16.88;;;8.82;;
74309;SDS011;62722;51.142;17.052;2022-11-21T10:38:40;22.67;;;8.88;;
74309;SDS011;62722;51.142;17.052;2022-11-21T10:41:12;19.02;;;7.95;;
74309;SDS011;62722;51.142;17.052;2022-11-21T10:43:44;18.63;;;8.32;;
74309;SDS011;62722;51.142;17.052;2022-11-21T10:46:35;18.90;;;8.80;;
74309;SDS011;62722;51.142;17.052;2022-11-21T10:49:03;20.23;;;8.73;;
74309;SDS011;62722;51.142;17.052;2022-11-21T10:51:34;18.88;;;8.45;;
74309;SDS011;62722;51.142;17.052;2022-11-21T10:54:08;19.27;;;8.45;;
74309;SDS011;62722;51.142;17.052;2022-11-21T10:56:55;18.40;;;8.80;;
74309;SDS011;62722;51.142;17.052;2022-11-21T10:59:28;20.15;;;8.60;;
74309;SDS011;62722;51.142;17.052;2022-11-21T11:01:58;20.50;;;8.48;;
74309;SDS011;62722;51.142;17.052;2022-11-21T11:04:27;21.30;;;9.20;;
74309;SDS011;62722;51.142;17.052;2022-11-21T11:06:55;21.50;;;10.13;;
74309;SDS011;62722;51.142;17.052;2022-11-21T11:09:25;25.80;;;10.15;;
74309;SDS011;62722;51.142;17.052;2022-11-21T11:14:48;22.88;;;9.63;;
74309;SDS011;62722;51.142;17.052;2022-11-21T11:17:26;22.75;;;10.15;;
74309;SDS011;62722;51.142;17.052;2022-11-21T11:19:58;18.95;;;9.85;;
74309;SDS011;62722;51.142;17.052;2022-11-21T11:22:27;21.48;;;9.07;;
74309;SDS011;62722;51.142;17.052;2022-11-21T11:24:56;19.83;;;9.32;;
74309;SDS011;62722;51.142;17.052;2022-11-21T11:27:25;20.63;;;9.02;;
74309;SDS011;62722;51.142;17.052;2022-11-21T11:29:53;22.60;;;9.70;;
74309;SDS011;62722;51.142;17.052;2022-11-21T11:32:20;20.23;;;9.90;;
74309;SDS011;62722;51.142;17.052;2022-11-21T11:34:53;20.27;;;9.52;;
74309;SDS011;62722;51.142;17.052;2022-11-21T11:37:29;19.65;;;8.95;;
74309;SDS011;62722;51.142;17.052;2022-11-21T11:40:04;22.70;;;9.80;;
74309;SDS011;62722;51.142;17.052;2022-11-21T11:45:42;21.67;;;8.43;;
74309;SDS011;62722;51.142;17.052;2022-11-21T11:48:46;17.88;;;9.43;;
74309;SDS011;62722;51.142;17.052;2022-11-21T11:51:19;19.50;;;9.60;;
74309;SDS011;62722;51.142;17.052;2022-11-21T11:53:51;21.83;;;9.73;;
74309;SDS011;62722;51.142;17.052;2022-11-21T11:56:24;21.38;;;10.25;;
74309;SDS011;62722;51.142;17.052;2022-11-21T11:58:54;22.83;;;10.15;;
74309;SDS011;62722;51.142;17.052;2022-11-21T12:01:29;20.65;;;9.90;;
74309;SDS011;62722;51.142;17.052;2022-11-21T12:04:01;18.73;;;9.52;;
74309;SDS011;62722;51.142;17.052;2022-11-21T12:06:39;22.80;;;11.30;;
74309;SDS011;62722;51.142;17.052;2022-11-21T12:09:14;18.10;;;8.98;;
74309;SDS011;62722;51.142;17.052;2022-11-21T12:11:49;14.15;;;6.85;;
74309;SDS011;62722;51.142;17.052;2022-11-21T12:14:46;13.70;;;5.90;;
74309;SDS011;62722;51.142;17.052;2022-11-21T12:17:39;11.73;;;5.85;;
74309;SDS011;62722;51.142;17.052;2022-11-21T12:20:18;12.35;;;5.60;;
74309;SDS011;62722;51.142;17.052;2022-11-21T12:22:50;15.13;;;7.28;;
74309;SDS011;62722;51.142;17.052;2022-11-21T12:25:20;15.95;;;7.97;;
74309;SDS011;62722;51.142;17.052;2022-11-21T12:27:53;22.38;;;10.05;;
74309;SDS011;62722;51.142;17.052;2022-11-21T12:30:38;19.75;;;8.25;;
74309;SDS011;62722;51.142;17.052;2022-11-21T12:33:22;22.63;;;9.32;;
74309;SDS011;62722;51.142;17.052;2022-11-21T12:35:54;22.33;;;9.73;;
74309;SDS011;62722;51.142;17.052;2022-11-21T12:41:42;21.73;;;9.63;;
74309;SDS011;62722;51.142;17.052;2022-11-21T12:44:39;27.88;;;10.07;;
74309;SDS011;62722;51.142;17.052;2022-11-21T12:47:26;22.10;;;9.80;;
74309;SDS011;62722;51.142;17.052;2022-11-21T12:50:23;19.40;;;9.23;;
74309;SDS011;62722;51.142;17.052;2022-11-21T12:53:17;20.80;;;8.30;;
74309;SDS011;62722;51.142;17.052;2022-11-21T12:56:11;21.48;;;8.43;;
74309;SDS011;62722;51.142;17.052;2022-11-21T12:58:46;24.48;;;9.68;;
74309;SDS011;62722;51.142;17.052;2022-11-21T13:01:18;20.23;;;9.05;;
74309;SDS011;62722;51.142;17.052;2022-11-21T13:03:55;19.73;;;8.45;;
74309;SDS011;62722;51.142;17.052;2022-11-21T13:06:26;22.13;;;8.95;;
74309;SDS011;62722;51.142;17.052;2022-11-21T13:08:55;20.63;;;9.05;;
74309;SDS011;62722;51.142;17.052;2022-11-21T13:11:32;23.17;;;9.23;;
74309;SDS011;62722;51.142;17.052;2022-11-21T13:14:27;18.20;;;8.75;;
74309;SDS011;62722;51.142;17.052;2022-11-21T13:20:01;21.85;;;9.45;;
74309;SDS011;62722;51.142;17.052;2022-11-21T13:22:54;21.13;;;9.23;;
74309;SDS011;62722;51.142;17.052;2022-11-21T13:25:36;23.52;;;9.40;;
74309;SDS011;62722;51.142;17.052;2022-11-21T13:31:01;28.15;;;11.15;;
74309;SDS011;62722;51.142;17.052;2022-11-21T13:33:50;26.73;;;10.30;;
74309;SDS011;62722;51.142;17.052;2022-11-21T13:42:09;20.52;;;8.52;;
74309;SDS011;62722;51.142;17.052;2022-11-21T13:45:02;18.27;;;8.85;;
74309;SDS011;62722;51.142;17.052;2022-11-21T13:48:20;21.75;;;8.93;;
74309;SDS011;62722;51.142;17.052;2022-11-21T13:54:21;32.00;;;13.13;;
74309;SDS011;62722;51.142;17.052;2022-11-21T13:57:09;23.73;;;9.38;;
74309;SDS011;62722;51.142;17.052;2022-11-21T14:05:44;16.15;;;7.25;;
74309;SDS011;62722;51.142;17.052;2022-11-21T14:08:25;17.25;;;7.82;;
74309;SDS011;62722;51.142;17.052;2022-11-21T14:10:54;17.38;;;7.90;;
74309;SDS011;62722;51.142;17.052;2022-11-21T14:13:25;16.73;;;7.68;;
74309;SDS011;62722;51.142;17.052;2022-11-21T14:18:37;13.35;;;6.72;;
74309;SDS011;62722;51.142;17.052;2022-11-21T14:21:15;15.15;;;7.35;;
74309;SDS011;62722;51.142;17.052;2022-11-21T14:26:15;14.00;;;6.28;;
74309;SDS011;62722;51.142;17.052;2022-11-21T14:28:45;17.38;;;7.70;;
74309;SDS011;62722;51.142;17.052;2022-11-21T14:31:14;19.23;;;8.18;;
74309;SDS011;62722;51.142;17.052;2022-11-21T14:33:42;21.08;;;9.07;;
74309;SDS011;62722;51.142;17.052;2022-11-21T14:36:11;20.55;;;8.55;;
74309;SDS011;62722;51.142;17.052;2022-11-21T14:38:41;21.80;;;9.73;;
74309;SDS011;62722;51.142;17.052;2022-11-21T14:41:25;24.85;;;10.07;;
74309;SDS011;62722;51.142;17.052;2022-11-21T14:44:04;20.20;;;8.95;;
74309;SDS011;62722;51.142;17.052;2022-11-21T14:49:15;22.42;;;8.82;;
74309;SDS011;62722;51.142;17.052;2022-11-21T14:51:52;25.35;;;10.10;;
74309;SDS011;62722;51.142;17.052;2022-11-21T14:54:25;19.88;;;9.27;;
74309;SDS011;62722;51.142;17.052;2022-11-21T14:56:56;28.73;;;10.13;;
74309;SDS011;62722;51.142;17.052;2022-11-21T14:59:25;24.10;;;10.38;;
74309;SDS011;62722;51.142;17.052;2022-11-21T15:01:57;24.13;;;9.98;;
74309;SDS011;62722;51.142;17.052;2022-11-21T15:04:29;21.55;;;9.05;;
74309;SDS011;62722;51.142;17.052;2022-11-21T15:06:58;24.08;;;10.63;;
74309;SDS011;62722;51.142;17.052;2022-11-21T15:09:26;25.95;;;10.15;;
74309;SDS011;62722;51.142;17.052;2022-11-21T15:11:55;27.00;;;10.88;;